Flight Track Log - Related Links

Times and Time Zones

All times are in EDT time to prevent confusion due to time zone crossing. See the AWI4084 flight status page for this flight to view local times or setup timezone preferences in your user account.

Time Position Orientation Groundspeed Altitude Reporting Facility
EDT Latitude Longitude Course Direction KTS MPH feet Rate Location/Type
Sun 03:33:42 PM 38.8167 -77.0333 337° Northwest 162 186 1,400  Level Potomac TRACON
Sun 03:34:42 PM 38.7667 -77.0333 180° South 211 243 3,500 1,950 Climbing Potomac TRACON
Sun 03:35:42 PM 38.7333 -77.1000 237° Southwest 253 291 5,300 2,182 Climbing Potomac TRACON
Sun 03:36:00 PM 39.1525 -77.1991 336° Northwest  Level FlightAware Approximate
Sun 03:36:43 PM 38.7167 -77.1833 256° West 264 304 7,900  Level Potomac TRACON
Sun 03:37:00 PM 39.2325 -77.2330 346° North  Level FlightAware Approximate
Sun 03:37:43 PM 38.7667 -77.2500 314° West 266 306 10,400  Level Potomac TRACON
Sun 03:38:00 PM 39.3101 -77.2759 337° Northwest  Level FlightAware Approximate
Sun 03:38:37 PM 38.8167 -77.3000 322° Northwest 293 337 11,300  Level Potomac TRACON
Sun 03:39:37 PM 38.9000 -77.3333 343° North 332 382 12,100 750 Climbing Potomac TRACON
Sun 03:40:37 PM 39.0000 -77.4000 333° Northwest 402 463 12,800 850 Climbing Potomac TRACON
Sun 03:41:37 PM 39.1000 -77.4167 353° North 377 434 13,800 1,097 Climbing Potomac TRACON
Sun 03:43:43 PM 39.3244 -77.4347 356° North 385 443 16,200 1,149 Climbing Washington Center
Sun 03:44:45 PM 39.4308 -77.4403 358° North 385 443 17,400 1,180 Climbing Washington Center
Sun 03:45:45 PM 39.5389 -77.4483 357° North 385 443 18,600 1,259 Climbing Washington Center
Sun 03:47:27 PM 39.7094 -77.4531 359° North 387 445 20,800 1,370 Climbing New York Center
Sun 03:48:27 PM 39.8139 -77.4522 360° North 382 440 22,300 1,525 Climbing New York Center
Sun 03:49:25 PM 39.9161 -77.4511 360° North 376 433 23,800 1,361 Climbing New York Center
Sun 03:50:26 PM 40.0142 -77.4497 North 365 420 25,000 595 Climbing New York Center
Sun 03:51:26 PM 40.1339 -77.4311 North 371 427 25,000  Level New York Center
Sun 03:52:27 PM 40.2419 -77.3628 26° Northeast 391 450 25,000  Level New York Center
Sun 03:53:25 PM 40.3519 -77.2969 25° Northeast 412 474 25,000  Level New York Center
Sun 03:54:25 PM 40.4600 -77.2308 25° Northeast 418 481 25,000  Level New York Center
Sun 03:55:26 PM 40.5719 -77.1619 25° Northeast 428 493 25,000  Level New York Center
Sun 03:56:27 PM 40.6819 -77.0928 25° Northeast 440 506 25,000  Level New York Center
Sun 03:57:27 PM 40.7986 -77.0186 26° Northeast 440 506 25,000 -458 Level New York Center
Sun 03:58:25 PM 40.9128 -76.9467 25° Northeast 446 513 24,100 -1,017 Descending New York Center
Sun 03:59:25 PM 41.0356 -76.8697 25° Northeast 457 526 23,000 -545 Descending New York Center
Sun 04:00:26 PM 41.1539 -76.7950 25° Northeast 467 537 23,000  Level New York Center
Sun 04:01:26 PM 41.2725 -76.7200 25° Northeast 472 543 23,000  Level New York Center
Sun 04:02:27 PM 41.3864 -76.6469 26° Northeast 465 535 23,000  Level New York Center
Sun 04:03:28 PM 41.4789 -76.5858 26° Northeast 460 529 23,000  Level New York Center
Sun 04:04:25 PM 41.6083 -76.5389 15° North 448 516 23,000 -559 Level New York Center
Sun 04:05:26 PM 41.7261 -76.5156 North 437 503 21,900 -1,279 Descending New York Center
Sun 04:06:27 PM 41.8481 -76.4928 North 432 497 20,400 -1,513 Descending New York Center
Sun 04:07:25 PM 41.9658 -76.4667 North 432 497 18,900 -1,563 Descending New York Center
Sun 04:08:26 PM 42.0814 -76.4431 North 432 497 17,300 -934 Descending New York Center
Sun 04:09:27 PM 42.1931 -76.4192 North 419 482 17,000 -590 Descending New York Center
Sun 04:10:28 PM 42.2961 -76.3972 North 394 453 16,100 -1,584 Descending New York Center
Sun 04:11:32 PM 42.4178 -76.3694 10° North 360 414 13,700 -2,016 Descending Boston Center
Sun 04:12:33 PM 42.5144 -76.3475 North 358 412 11,900 -1,388 Descending Boston Center
Sun 04:13:33 PM 42.6153 -76.3311 North 362 417 10,900 -843 Descending Boston Center
Sun 04:14:34 PM 42.6972 -76.3108 10° North 306 352 10,200 -1,180 Descending Boston Center
Sun 04:15:35 PM 42.7750 -76.2931 10° North 272 313 8,500 -1,587 Descending Boston Center
Sun 04:16:35 PM 42.8506 -76.2781 North 273 314 7,000 -1,636 Descending Boston Center
Sun 04:17:36 PM 42.9197 -76.2625 North 254 292 5,200 -1,525 Descending Boston Center
Sun 04:18:37 PM 42.9581 -76.1797 58° Northeast 273 314 3,900 -645 Descending Boston Center
Sun 04:19:37 PM 42.9778 -76.0872 74° East 259 298 3,900  Level Boston Center
Sun 04:20:38 PM 43.0036 -75.9922 70° East 265 305 3,900  Level Boston Center
Sun 04:21:38 PM 43.0256 -75.8883 74° East 275 316 3,900 -496 Level Boston Center
Sun 04:22:39 PM 43.0792 -75.8431 32° Northeast 256 295 2,900 -724 Descending Boston Center
Sun 04:23:34 PM 43.1153 -75.8878 318° Northwest 176 203 2,500 -220 Descending Boston Center
Sun 04:24:28 PM 43.1139 -75.9358 268° West 149 171 2,500  Level Boston Center

Login

Don't have an account? Register now (free) for customized features, flight alerts, and more!